• Join FlightAware (Why Join?)
  • Login
  • US Flag 
09:54PM EDT


 

Airport Tracker/Info


-or-


 

Live Flight TrackerFlight Track Log ✈ CSN6817 ✈ 12-Feb-2014 ✈ ZWWW / URC - ZWTN / HTN

Flight Track Log - Related Links

Times and Time Zones

All times are in EST time to prevent confusion due to time zone crossing. See the CSN6817 flight status page for this flight to view local times or setup timezone preferences in your user account.

Time Position Orientation Groundspeed Altitude Reporting Facility
EST Latitude Longitude Course Direction KTS MPH feet Rate Location/Type
05:30AM 43.3111 86.7227 223° Southwest  Level Estimated
05:31AM 43.2363 86.6298 222° Southwest  Level Estimated
05:32AM 43.1614 86.5371 222° Southwest  Level Estimated
05:33AM 43.0864 86.4447 222° Southwest  Level Estimated
05:34AM 43.0113 86.3525 222° Southwest  Level Estimated
05:35AM 42.9362 86.2605 222° Southwest  Level Estimated
05:36AM 42.8610 86.1687 222° Southwest  Level Estimated
05:37AM 42.7857 86.0771 222° Southwest  Level Estimated
05:38AM 42.7103 85.9858 222° Southwest  Level Estimated
05:39AM 42.6349 85.8947 222° Southwest  Level Estimated
05:40AM 42.5594 85.8038 222° Southwest  Level Estimated
05:41AM 42.4838 85.7132 222° Southwest  Level Estimated
05:42AM 42.4081 85.6227 221° Southwest  Level Estimated
05:43AM 42.3324 85.5325 221° Southwest  Level Estimated
05:44AM 42.2566 85.4425 221° Southwest  Level Estimated
05:45AM 42.1808 85.3527 221° Southwest  Level Estimated
05:46AM 42.1049 85.2631 221° Southwest  Level Estimated
05:47AM 42.0289 85.1738 221° Southwest  Level Estimated
05:48AM 41.9528 85.0846 221° Southwest  Level Estimated
05:49AM 41.8767 84.9957 221° Southwest  Level Estimated
05:50AM 41.8004 84.9070 221° Southwest  Level Estimated
05:51AM 41.7242 84.8184 221° Southwest  Level Estimated
05:52AM 41.6478 84.7301 221° Southwest  Level Estimated
05:53AM 41.5714 84.6420 221° Southwest  Level Estimated
05:54AM 41.4950 84.5542 221° Southwest  Level Estimated
05:55AM 41.4184 84.4665 221° Southwest  Level Estimated
05:56AM 41.3418 84.3790 221° Southwest  Level Estimated
05:57AM 41.2651 84.2917 221° Southwest  Level Estimated
05:58AM 41.1884 84.2047 221° Southwest  Level Estimated
05:59AM 41.1116 84.1178 220° Southwest  Level Estimated
06:00AM 41.0347 84.0312 220° Southwest  Level Estimated
06:01AM 40.9578 83.9447 220° Southwest  Level Estimated
06:02AM 40.8808 83.8585 220° Southwest  Level Estimated
06:03AM 40.8037 83.7724 220° Southwest  Level Estimated
06:04AM 40.7266 83.6865 220° Southwest  Level Estimated
06:05AM 40.6494 83.6009 220° Southwest  Level Estimated
06:06AM 40.5722 83.5154 220° Southwest  Level Estimated
06:07AM 40.4949 83.4302 220° Southwest  Level Estimated
06:08AM 40.4175 83.3451 220° Southwest  Level Estimated
06:09AM 40.3400 83.2602 220° Southwest  Level Estimated
06:10AM 40.2625 83.1756 220° Southwest  Level Estimated
06:11AM 40.1850 83.0911 220° Southwest  Level Estimated
06:12AM 40.1073 83.0068 220° Southwest  Level Estimated
06:13AM 40.0297 82.9227 220° Southwest  Level Estimated
06:14AM 39.9519 82.8388 220° Southwest  Level Estimated
06:15AM 39.8741 82.7551 220° Southwest  Level Estimated
06:16AM 39.7962 82.6716 220° Southwest  Level Estimated
06:17AM 39.7183 82.5883 219° Southwest  Level Estimated
06:18AM 39.6403 82.5051 219° Southwest  Level Estimated
06:19AM 39.5623 82.4222 219° Southwest  Level Estimated
06:20AM 39.4842 82.3394 219° Southwest  Level Estimated
06:21AM 39.4060 82.2568 219° Southwest  Level Estimated
06:22AM 39.3278 82.1744 219° Southwest  Level Estimated
06:23AM 39.2495 82.0922 219° Southwest  Level Estimated
06:24AM 39.1712 82.0102 219° Southwest  Level Estimated
06:25AM 39.0928 81.9283 219° Southwest  Level Estimated
06:26AM 39.0143 81.8466 219° Southwest  Level Estimated
06:27AM 38.9358 81.7652 219° Southwest  Level Estimated
06:28AM 38.8573 81.6838 219° Southwest  Level Estimated
06:29AM 38.7786 81.6027 219° Southwest  Level Estimated
06:30AM 38.7000 81.5218 219° Southwest  Level Estimated
06:31AM 38.6212 81.4410 219° Southwest  Level Estimated
06:32AM 38.5424 81.3604 219° Southwest  Level Estimated
06:33AM 38.4636 81.2800 219° Southwest  Level Estimated
06:34AM 38.3847 81.1997 219° Southwest  Level Estimated
06:35AM 38.3058 81.1197 219° Southwest  Level Estimated
06:36AM 38.2267 81.0398 218° Southwest  Level Estimated
06:37AM 38.1477 80.9601 218° Southwest  Level Estimated
06:38AM 38.0686 80.8805 218° Southwest  Level Estimated
06:39AM 37.9894 80.8012 218° Southwest  Level Estimated
06:40AM 37.9102 80.7220 218° Southwest  Level Estimated
06:41AM 37.8309 80.6429 218° Southwest  Level Estimated
06:42AM 37.7516 80.5641 218° Southwest  Level Estimated
06:43AM 37.6722 80.4854 218° Southwest  Level Estimated
06:44AM 37.5928 80.4069 218° Southwest  Level Estimated
06:45AM 37.5133 80.3285 218° Southwest  Level Estimated
06:46AM 37.4338 80.2503 218° Southwest  Level Estimated
06:47AM 37.3542 80.1723 218° Southwest  Level Estimated
06:48AM 37.2745 80.0944 218° Southwest  Level Estimated
06:49AM 37.1948 80.0167 218° Southwest  Level Estimated
06:50AM 37.1151 79.9392 218° Southwest  Level Estimated
06:51AM 37.0385 79.8649 218° Southwest  Level Estimated
06:52AM 37.0385 79.8649 50° Northeast  Level Estimated
06:53AM 37.0385 79.8649 50° Northeast  Level Estimated
06:54AM 37.0385 79.8649 50° Northeast  Level Estimated
06:55AM 37.0385 79.8649 50° Northeast  Level Estimated
06:56AM 37.0385 79.8649 50° Northeast  Level Estimated
06:57AM 37.0385 79.8649 50° Northeast  Level Estimated
06:58AM 37.0385 79.8649 50° Northeast  Level Estimated
06:59AM 37.0385 79.8649 50° Northeast  Level Estimated
07:00AM 37.0385 79.8649 50° Northeast  Level Estimated
07:01AM 37.0385 79.8649 50° Northeast  Level Estimated
07:02AM 37.0385 79.8649 50° Northeast  Level Estimated
07:03AM 37.0385 79.8649 50° Northeast  Level Estimated
07:04AM 37.0385 79.8649 50° Northeast  Level Estimated
07:05AM 37.0385 79.8649 50° Northeast  Level Estimated
07:06AM 37.0385 79.8649 50° Northeast  Level Estimated
07:07AM 37.0385 79.8649 50° Northeast  Level Estimated